createdAt,value
2019-01-18T00:04:19.007Z,6.40
2019-01-18T00:09:30.801Z,6.40
2019-01-18T00:14:42.714Z,6.40
2019-01-18T00:19:54.199Z,6.40
2019-01-18T00:25:06.166Z,6.40
2019-01-18T00:30:17.963Z,6.30
2019-01-18T00:35:29.169Z,6.30
2019-01-18T00:40:40.953Z,6.30
2019-01-18T00:45:52.442Z,6.20
2019-01-18T00:51:03.735Z,6.20
2019-01-18T00:56:15.022Z,6.30
2019-01-18T01:01:27.230Z,6.30
2019-01-18T01:06:39.397Z,6.30
2019-01-18T01:11:50.847Z,6.30
2019-01-18T01:17:03.415Z,6.20
2019-01-18T01:22:15.129Z,6.20
2019-01-18T01:27:26.798Z,6.20
2019-01-18T01:32:38.675Z,6.20
2019-01-18T01:37:50.306Z,6.20
2019-01-18T01:43:02.256Z,6.10
2019-01-18T01:48:14.269Z,6.10
2019-01-18T01:53:26.305Z,6.00
2019-01-18T01:58:38.079Z,6.00
2019-01-18T02:03:50.029Z,6.10
2019-01-18T02:09:01.562Z,6.00
2019-01-18T02:14:14.674Z,5.90
2019-01-18T02:19:25.998Z,5.90
2019-01-18T02:24:37.182Z,5.90
2019-01-18T02:29:48.402Z,5.90
2019-01-18T02:34:59.834Z,5.90
2019-01-18T02:40:11.867Z,5.90
2019-01-18T02:45:23.964Z,5.80
2019-01-18T02:50:35.314Z,5.80
2019-01-18T02:55:47.334Z,5.80
2019-01-18T03:00:59.184Z,5.70
2019-01-18T03:06:11.358Z,5.70
2019-01-18T03:11:23.450Z,5.70
2019-01-18T03:16:35.467Z,5.60
2019-01-18T03:21:47.491Z,5.60
2019-01-18T03:26:59.348Z,5.60
2019-01-18T03:32:11.740Z,5.60
2019-01-18T03:37:23.853Z,5.60
2019-01-18T03:42:35.345Z,5.60
2019-01-18T03:47:47.247Z,5.50
2019-01-18T03:52:59.005Z,5.50
2019-01-18T03:58:10.564Z,5.50
2019-01-18T04:03:22.051Z,5.50
2019-01-18T04:08:33.551Z,5.50
2019-01-18T04:13:45.756Z,5.50
2019-01-18T04:18:57.139Z,5.50
2019-01-18T04:24:09.237Z,5.50
2019-01-18T04:29:20.612Z,5.60
2019-01-18T04:34:32.448Z,5.60
2019-01-18T04:39:43.671Z,5.50
2019-01-18T04:44:53.716Z,5.50
2019-01-18T04:50:14.012Z,5.50
2019-01-18T04:55:27.371Z,5.40
2019-01-18T05:00:40.842Z,5.40
2019-01-18T05:05:52.384Z,5.40
2019-01-18T05:10:52.406Z,5.30
2019-01-18T05:15:52.071Z,5.30
2019-01-18T05:21:10.962Z,5.20
2019-01-18T05:26:22.839Z,5.20
2019-01-18T05:31:22.591Z,5.10
2019-01-18T05:36:41.471Z,5.10
2019-01-18T05:41:53.516Z,5.10
2019-01-18T05:47:05.388Z,5.10
2019-01-18T05:52:17.222Z,5.10
2019-01-18T05:57:29.481Z,5.00
2019-01-18T06:02:41.139Z,5.00
2019-01-18T06:07:52.975Z,4.90
2019-01-18T06:13:04.990Z,4.90
2019-01-18T06:18:16.291Z,4.90
2019-01-18T06:23:28.260Z,4.90
2019-01-18T06:28:39.488Z,4.80
2019-01-18T06:33:50.959Z,4.80
2019-01-18T06:39:02.843Z,4.70
2019-01-18T06:44:14.747Z,4.70
2019-01-18T06:49:26.344Z,4.70
2019-01-18T06:54:37.903Z,4.70
2019-01-18T06:59:49.675Z,4.70
2019-01-18T07:05:00.961Z,4.70
2019-01-18T07:10:12.408Z,4.70
2019-01-18T07:15:23.657Z,4.60
2019-01-18T07:20:35.616Z,4.60
2019-01-18T07:25:47.271Z,4.50
2019-01-18T07:30:59.255Z,4.50
2019-01-18T07:36:11.276Z,4.40
2019-01-18T07:41:22.783Z,4.40
2019-01-18T07:46:22.758Z,4.40
2019-01-18T07:51:41.716Z,4.30
2019-01-18T07:56:53.267Z,4.30
2019-01-18T08:02:04.615Z,4.40
2019-01-18T08:07:16.368Z,4.30
2019-01-18T08:12:28.254Z,4.30
2019-01-18T08:17:42.722Z,4.30
2019-01-18T08:22:54.097Z,4.30
2019-01-18T08:28:06.002Z,4.30
2019-01-18T08:33:18.151Z,4.40
2019-01-18T08:38:30.303Z,4.40
2019-01-18T08:43:42.568Z,4.50
2019-01-18T08:48:54.733Z,4.50
2019-01-18T08:54:06.987Z,4.50
2019-01-18T08:59:18.351Z,4.50
2019-01-18T09:04:30.056Z,4.50
2019-01-18T09:09:42.032Z,4.60
2019-01-18T09:14:53.881Z,4.60
2019-01-18T09:20:05.295Z,4.70
2019-01-18T09:25:16.991Z,4.70
2019-01-18T09:30:29.643Z,4.70
2019-01-18T09:35:41.353Z,4.80
2019-01-18T09:40:53.411Z,4.80
2019-01-18T09:46:05.639Z,4.90
2019-01-18T09:51:17.420Z,4.90
2019-01-18T09:56:29.229Z,4.90
2019-01-18T10:01:41.592Z,5.00
2019-01-18T10:06:53.503Z,5.00
2019-01-18T10:12:05.908Z,5.10
2019-01-18T10:17:17.931Z,5.20
2019-01-18T10:22:29.683Z,5.20
2019-01-18T10:27:41.668Z,5.30
2019-01-18T10:32:52.927Z,5.40
2019-01-18T10:38:04.599Z,5.40
2019-01-18T10:43:16.272Z,5.50
2019-01-18T10:48:28.288Z,5.60
2019-01-18T10:53:40.357Z,5.70
2019-01-18T10:58:52.022Z,5.70
2019-01-18T11:04:01.976Z,5.80
2019-01-18T11:09:13.759Z,5.90
2019-01-18T11:14:25.823Z,6.00
2019-01-18T11:19:37.855Z,6.00
2019-01-18T11:24:49.998Z,6.10
2019-01-18T11:30:01.911Z,6.10
2019-01-18T11:35:14.277Z,6.10
2019-01-18T11:40:26.683Z,6.20
2019-01-18T11:45:39.639Z,6.20
2019-01-18T11:50:49.571Z,6.30
2019-01-18T11:56:01.527Z,6.30
2019-01-18T12:01:12.731Z,6.30
2019-01-18T12:06:25.743Z,6.40
2019-01-18T12:11:37.891Z,6.40
2019-01-18T12:16:49.595Z,6.40
2019-01-18T12:22:00.851Z,6.40
2019-01-18T12:27:12.418Z,6.40
2019-01-18T12:32:28.772Z,6.50
2019-01-18T12:37:37.633Z,6.50
2019-01-18T12:42:49.845Z,6.50
2019-01-18T12:48:01.871Z,6.60
2019-01-18T12:53:13.154Z,6.70
2019-01-18T12:58:24.827Z,6.70
2019-01-18T13:03:36.839Z,6.70
2019-01-18T13:08:48.754Z,6.70
2019-01-18T13:14:00.343Z,6.70
2019-01-18T13:19:12.359Z,6.80
2019-01-18T13:24:24.119Z,6.80
2019-01-18T13:29:35.960Z,6.80
2019-01-18T13:34:47.883Z,6.80
2019-01-18T13:39:59.771Z,6.80
2019-01-18T13:45:11.059Z,6.80
2019-01-18T13:50:23.168Z,6.80
2019-01-18T13:55:34.768Z,6.80
2019-01-18T14:00:46.959Z,6.80
2019-01-18T14:05:58.791Z,6.80
2019-01-18T14:11:11.236Z,6.80
2019-01-18T14:16:23.491Z,6.80
2019-01-18T14:21:35.016Z,6.80
2019-01-18T14:26:47.234Z,6.90
2019-01-18T14:31:58.578Z,6.90
2019-01-18T14:37:10.068Z,6.90
2019-01-18T14:42:22.235Z,6.90
2019-01-18T14:47:22.364Z,6.90
2019-01-18T14:52:22.006Z,6.90
2019-01-18T14:57:23.155Z,6.90
2019-01-18T15:02:47.570Z,6.80
2019-01-18T15:07:59.666Z,6.80
2019-01-18T15:13:11.694Z,6.80
2019-01-18T15:18:23.348Z,6.80
2019-01-18T15:23:34.602Z,6.80
2019-01-18T15:28:46.739Z,6.80
2019-01-18T15:33:58.688Z,6.80
2019-01-18T15:39:12.059Z,6.80
2019-01-18T15:44:23.648Z,6.80
2019-01-18T15:49:35.331Z,6.70
2019-01-18T15:54:47.413Z,6.70
2019-01-18T15:59:59.262Z,6.70
2019-01-18T16:05:11.028Z,6.70
2019-01-18T16:10:22.975Z,6.70
2019-01-18T16:15:35.019Z,6.70
2019-01-18T16:20:46.267Z,6.70
2019-01-18T16:25:58.120Z,6.70
2019-01-18T16:31:10.078Z,6.70
2019-01-18T16:36:21.912Z,6.70
2019-01-18T16:41:33.111Z,6.70
2019-01-18T16:46:33.055Z,6.80
2019-01-18T16:51:51.919Z,6.80
2019-01-18T16:57:04.023Z,6.70
2019-01-18T17:02:15.463Z,6.80
2019-01-18T17:07:27.474Z,6.70
2019-01-18T17:12:39.128Z,6.80
2019-01-18T17:17:50.911Z,6.80
2019-01-18T17:23:02.754Z,6.70
2019-01-18T17:28:13.991Z,6.70
2019-01-18T17:33:26.111Z,6.70
2019-01-18T17:38:37.843Z,6.70
2019-01-18T17:43:49.519Z,6.70
2019-01-18T17:49:00.809Z,6.80
2019-01-18T17:54:12.799Z,6.80
2019-01-18T17:59:24.888Z,6.90
2019-01-18T18:04:36.860Z,6.90
2019-01-18T18:09:48.553Z,6.90
2019-01-18T18:15:00.564Z,7.00
2019-01-18T18:20:12.240Z,7.00
2019-01-18T18:25:24.092Z,7.00
2019-01-18T18:30:35.780Z,7.00
2019-01-18T18:35:55.793Z,7.00
2019-01-18T18:41:33.888Z,7.00
2019-01-18T18:46:45.671Z,7.00
2019-01-18T18:51:56.944Z,7.00
2019-01-18T18:57:08.940Z,7.00
2019-01-18T19:02:20.805Z,7.00
2019-01-18T19:07:32.329Z,7.10
2019-01-18T19:12:44.428Z,7.10
2019-01-18T19:17:56.596Z,7.10
2019-01-18T19:23:08.483Z,7.10
2019-01-18T19:28:21.247Z,7.10
2019-01-18T19:33:33.332Z,7.10
2019-01-18T19:38:45.177Z,7.00
2019-01-18T19:43:57.179Z,7.00
2019-01-18T19:49:08.647Z,7.00
2019-01-18T19:54:20.669Z,7.00
2019-01-18T19:59:32.895Z,7.00
2019-01-18T20:04:44.780Z,6.90
2019-01-18T20:09:56.604Z,6.90
2019-01-18T20:15:08.648Z,6.90
2019-01-18T20:20:20.491Z,6.90
2019-01-18T20:25:31.960Z,6.80
2019-01-18T20:30:43.439Z,6.80
2019-01-18T20:35:55.342Z,6.80
2019-01-18T20:41:07.539Z,6.80
2019-01-18T20:46:19.359Z,6.70
2019-01-18T20:51:30.831Z,6.80
2019-01-18T20:56:42.883Z,6.70
2019-01-18T21:01:54.620Z,6.80
2019-01-18T21:07:06.896Z,6.80
2019-01-18T21:12:18.140Z,6.80
2019-01-18T21:17:30.294Z,7.10
2019-01-18T21:22:42.292Z,7.00
2019-01-18T21:27:53.962Z,6.90
2019-01-18T21:33:05.783Z,6.80
2019-01-18T21:38:18.168Z,6.80
2019-01-18T21:43:30.006Z,6.80
2019-01-18T21:48:41.947Z,6.80
2019-01-18T21:53:54.168Z,6.70
2019-01-18T21:59:06.268Z,6.70
2019-01-18T22:04:17.896Z,6.70
2019-01-18T22:09:29.935Z,6.70
2019-01-18T22:14:41.927Z,6.70
2019-01-18T22:19:54.075Z,6.70
2019-01-18T22:25:05.352Z,6.70
2019-01-18T22:30:17.256Z,6.70
2019-01-18T22:35:29.015Z,6.70
2019-01-18T22:40:42.163Z,6.70
2019-01-18T22:45:53.438Z,6.80
2019-01-18T22:51:05.679Z,6.70
2019-01-18T22:56:18.067Z,6.70
2019-01-18T23:01:32.164Z,6.70
2019-01-18T23:06:43.503Z,6.70
2019-01-18T23:11:55.232Z,6.60
2019-01-18T23:17:06.834Z,6.60
2019-01-18T23:22:18.471Z,6.60
2019-01-18T23:27:30.985Z,6.60
2019-01-18T23:32:42.755Z,6.60
2019-01-18T23:37:54.838Z,6.60
2019-01-18T23:43:06.554Z,6.60
2019-01-18T23:48:18.007Z,6.60
2019-01-18T23:53:29.991Z,6.60
2019-01-18T23:58:41.284Z,6.60
